createdAt,value
2023-09-26T00:07:37.733Z,35.90
2023-09-26T00:10:13.425Z,36.15
2023-09-26T00:12:47.040Z,36.02
2023-09-26T00:15:21.989Z,36.23
2023-09-26T00:18:01.062Z,36.16
2023-09-26T00:20:38.977Z,36.11
2023-09-26T00:23:13.702Z,36.18
2023-09-26T00:25:47.302Z,36.28
2023-09-26T00:28:20.265Z,36.34
2023-09-26T00:30:53.816Z,36.32
2023-09-26T00:33:27.083Z,36.35
2023-09-26T00:36:03.078Z,36.38
2023-09-26T00:38:40.785Z,36.40
2023-09-26T00:41:14.212Z,36.46
2023-09-26T00:43:48.039Z,36.41
2023-09-26T00:46:22.299Z,36.56
2023-09-26T00:48:55.659Z,36.48
2023-09-26T00:51:28.765Z,36.58
2023-09-26T00:54:03.913Z,36.45
2023-09-26T00:56:36.276Z,36.67
2023-09-26T00:59:11.164Z,36.52
2023-09-26T01:01:51.047Z,36.47
2023-09-26T01:04:26.974Z,36.71
2023-09-26T01:06:59.729Z,36.64
2023-09-26T01:09:34.014Z,36.65
2023-09-26T01:12:07.054Z,36.64
2023-09-26T01:14:42.083Z,36.69
2023-09-26T01:17:15.790Z,36.77
2023-09-26T01:19:48.544Z,36.73
2023-09-26T01:22:25.187Z,36.73
2023-09-26T01:24:59.396Z,36.74
2023-09-26T01:27:32.267Z,36.79
2023-09-26T01:30:08.580Z,36.78
2023-09-26T01:32:42.656Z,36.90
2023-09-26T01:35:20.943Z,36.73
2023-09-26T01:37:53.457Z,36.85
2023-09-26T01:40:26.601Z,36.93
2023-09-26T01:42:59.499Z,37.01
2023-09-26T01:45:35.637Z,37.00
2023-09-26T01:48:11.985Z,36.93
2023-09-26T01:50:45.896Z,36.92
2023-09-26T01:53:19.969Z,36.95
2023-09-26T01:55:53.385Z,36.91
2023-09-26T01:58:26.102Z,37.05
2023-09-26T02:00:58.707Z,37.07
2023-09-26T02:03:31.593Z,37.03
2023-09-26T02:06:04.514Z,37.13
2023-09-26T02:45:58.909Z,37.64
2023-09-26T02:48:31.554Z,37.71
2023-09-26T02:51:07.688Z,37.77
2023-09-26T02:53:40.211Z,37.75
2023-09-26T02:56:15.595Z,37.63
2023-09-26T02:58:50.732Z,37.75
2023-09-26T03:01:23.786Z,37.65
2023-09-26T03:03:56.946Z,37.65
2023-09-26T03:06:29.643Z,37.80
2023-09-26T03:09:02.343Z,37.85
2023-09-26T03:11:35.215Z,37.72
2023-09-26T03:14:08.122Z,37.86
2023-09-26T03:16:41.317Z,37.73
2023-09-26T03:19:16.236Z,37.78
2023-09-26T03:21:51.058Z,37.85
2023-09-26T03:24:25.646Z,37.95
2023-09-26T03:26:59.539Z,37.90
2023-09-26T03:29:32.293Z,37.82
2023-09-26T03:32:05.324Z,38.00
2023-09-26T03:34:40.117Z,37.91
2023-09-26T03:37:13.233Z,37.95
2023-09-26T03:39:49.216Z,37.97
2023-09-26T03:42:21.772Z,37.94
2023-09-26T03:44:57.282Z,38.02
2023-09-26T03:48:01.050Z,38.18
2023-09-26T03:50:56.507Z,38.14
2023-09-26T03:53:31.654Z,38.11
2023-09-26T03:56:07.658Z,38.20
2023-09-26T03:58:47.818Z,38.18
2023-09-26T04:01:21.155Z,38.17
2023-09-26T04:03:55.478Z,38.36
2023-09-26T04:06:36.040Z,41.35
2023-09-26T04:09:10.305Z,42.50
2023-09-26T04:11:43.494Z,42.27
2023-09-26T04:14:19.329Z,42.03
2023-09-26T04:16:59.416Z,41.28
2023-09-26T04:19:35.796Z,40.00
2023-09-26T04:22:08.798Z,38.91
2023-09-26T04:24:42.482Z,38.56
2023-09-26T04:27:19.199Z,38.49
2023-09-26T04:29:53.983Z,38.39
2023-09-26T04:32:32.602Z,38.25
2023-09-26T04:35:05.761Z,38.43
2023-09-26T04:37:38.661Z,38.36
2023-09-26T04:40:15.076Z,38.35
2023-09-26T04:42:53.917Z,38.41
2023-09-26T04:45:32.769Z,38.38
2023-09-26T04:48:10.365Z,38.52
2023-09-26T04:50:43.073Z,38.52
2023-09-26T04:53:17.782Z,38.44
2023-09-26T04:55:51.241Z,38.48
2023-09-26T04:58:24.589Z,38.61
2023-09-26T05:00:57.985Z,38.63
2023-09-26T05:03:31.724Z,38.61
2023-09-26T05:06:04.418Z,38.51
2023-09-26T05:08:37.766Z,38.67
2023-09-26T05:11:17.453Z,38.64
2023-09-26T05:13:55.393Z,38.56
2023-09-26T05:16:28.869Z,38.70
2023-09-26T05:19:01.421Z,38.61
2023-09-26T05:21:34.455Z,38.71
2023-09-26T05:24:10.369Z,38.64
2023-09-26T05:26:43.913Z,38.54
2023-09-26T05:29:17.819Z,38.56
2023-09-26T05:31:51.737Z,38.68
2023-09-26T05:34:25.032Z,38.73
2023-09-26T05:36:57.823Z,38.57
2023-09-26T05:39:30.857Z,38.56
2023-09-26T05:42:03.813Z,38.61
2023-09-26T05:44:36.717Z,38.70
2023-09-26T05:47:10.858Z,38.75
2023-09-26T05:49:43.928Z,38.61
2023-09-26T05:52:18.184Z,38.63
2023-09-26T05:54:51.560Z,38.72
2023-09-26T05:57:24.418Z,38.77
2023-09-26T05:59:57.608Z,38.69
2023-09-26T06:02:33.415Z,38.58
2023-09-26T06:05:07.298Z,38.61
2023-09-26T06:07:40.399Z,38.66
2023-09-26T06:10:14.459Z,38.67
2023-09-26T06:12:50.333Z,38.84
2023-09-26T06:15:23.245Z,38.58
2023-09-26T06:18:00.953Z,38.82
2023-09-26T06:20:35.883Z,38.66
2023-09-26T06:23:10.256Z,38.81
2023-09-26T06:25:55.948Z,38.76
2023-09-26T06:28:29.741Z,38.64
2023-09-26T06:31:08.016Z,38.65
2023-09-26T06:33:43.130Z,38.68
2023-09-26T06:36:25.594Z,38.70
2023-09-26T06:39:05.855Z,38.77
2023-09-26T06:41:39.623Z,38.61
2023-09-26T06:44:12.812Z,38.65
2023-09-26T06:46:49.461Z,38.76
2023-09-26T06:49:22.045Z,38.77
2023-09-26T06:51:54.860Z,38.67
2023-09-26T06:54:27.464Z,38.48
2023-09-26T06:57:00.572Z,38.44
2023-09-26T06:59:34.000Z,38.45
2023-09-26T07:02:08.131Z,38.37
2023-09-26T07:04:40.889Z,38.26
2023-09-26T07:07:19.283Z,38.28
2023-09-26T07:09:51.900Z,38.17
2023-09-26T07:12:27.475Z,38.08
2023-09-26T07:15:02.640Z,38.11
2023-09-26T07:17:37.135Z,38.00
2023-09-26T07:20:16.084Z,38.03
2023-09-26T07:22:57.060Z,37.89
2023-09-26T07:25:36.405Z,37.81
2023-09-26T07:28:10.574Z,37.71
2023-09-26T07:30:44.079Z,37.78
2023-09-26T07:33:18.389Z,37.75
2023-09-26T07:36:02.252Z,37.70
2023-09-26T07:38:45.995Z,37.67
2023-09-26T07:41:18.890Z,37.64
2023-09-26T07:43:52.351Z,37.55
2023-09-26T07:46:25.961Z,37.62
2023-09-26T07:48:59.166Z,37.37
2023-09-26T07:51:43.368Z,37.21
2023-09-26T07:54:17.958Z,37.26
2023-09-26T07:56:50.546Z,37.18
2023-09-26T07:59:24.121Z,37.09
2023-09-26T08:01:56.942Z,37.01
2023-09-26T08:04:29.734Z,36.95
2023-09-26T08:07:03.380Z,36.85
2023-09-26T08:09:36.380Z,36.63
2023-09-26T08:12:11.108Z,36.39
2023-09-26T08:14:43.708Z,36.35
2023-09-26T08:17:19.262Z,36.17
2023-09-26T08:19:52.235Z,35.91
2023-09-26T08:22:26.558Z,35.81
2023-09-26T08:24:59.011Z,35.78
2023-09-26T08:27:33.416Z,35.64
2023-09-26T08:30:09.185Z,35.60
2023-09-26T08:32:42.714Z,35.51
2023-09-26T08:35:20.336Z,35.25
2023-09-26T08:37:54.699Z,35.20
2023-09-26T08:40:29.807Z,35.05
2023-09-26T08:43:09.187Z,35.05
2023-09-26T08:45:42.789Z,34.63
2023-09-26T08:48:17.507Z,34.72
2023-09-26T08:50:50.596Z,34.30
2023-09-26T08:53:38.164Z,34.25
2023-09-26T08:56:10.973Z,34.09
2023-09-26T08:58:45.824Z,33.98
2023-09-26T09:01:20.786Z,33.89
2023-09-26T09:03:53.727Z,33.84
2023-09-26T09:06:26.491Z,33.75
2023-09-26T09:09:11.712Z,33.33
2023-09-26T09:11:46.777Z,33.33
2023-09-26T09:14:35.277Z,33.15
2023-09-26T09:17:07.979Z,33.03
2023-09-26T09:19:51.340Z,33.10
2023-09-26T09:22:26.092Z,32.78
2023-09-26T09:24:59.888Z,32.61
2023-09-26T09:27:39.795Z,32.54
2023-09-26T09:30:16.902Z,32.40
2023-09-26T09:32:50.094Z,32.21
2023-09-26T09:35:24.114Z,31.95
2023-09-26T09:37:58.827Z,31.94
2023-09-26T09:40:32.498Z,31.23
2023-09-26T09:43:05.794Z,31.38
2023-09-26T09:45:40.200Z,31.06
2023-09-26T09:48:15.634Z,31.07
2023-09-26T09:50:53.862Z,30.99
2023-09-26T09:53:31.007Z,30.82
2023-09-26T09:56:07.795Z,30.53
2023-09-26T09:58:47.051Z,30.09
2023-09-26T10:01:25.711Z,29.99
2023-09-26T10:04:02.773Z,30.03
2023-09-26T10:06:35.784Z,30.20
2023-09-26T10:09:09.646Z,29.96
2023-09-26T10:11:42.440Z,29.78
2023-09-26T10:19:52.615Z,29.18
2023-09-26T10:22:37.039Z,29.29
2023-09-26T10:25:14.362Z,29.03
2023-09-26T10:28:01.068Z,28.90
2023-09-26T10:30:47.407Z,28.98
2023-09-26T10:36:20.281Z,28.62
2023-09-26T10:39:08.729Z,28.42
2023-09-26T10:42:01.201Z,28.50
2023-09-26T10:44:39.433Z,27.93
2023-09-26T10:47:17.909Z,28.02
2023-09-26T10:49:53.075Z,28.02
2023-09-26T10:52:33.545Z,27.96
2023-09-26T10:55:07.480Z,27.81
2023-09-26T10:57:41.639Z,27.66
2023-09-26T11:00:20.800Z,27.29
2023-09-26T11:02:58.237Z,27.46
2023-09-26T11:05:35.101Z,27.54
2023-09-26T11:08:12.729Z,27.35
2023-09-26T11:10:51.796Z,27.09
2023-09-26T11:13:26.563Z,26.57
2023-09-26T11:15:59.502Z,26.18
2023-09-26T11:18:33.054Z,26.54
2023-09-26T11:21:24.096Z,26.13
2023-09-26T11:24:00.698Z,26.09
2023-09-26T11:26:33.838Z,26.11
2023-09-26T11:29:07.185Z,26.03
2023-09-26T11:31:41.205Z,26.19
2023-09-26T11:34:13.956Z,26.29
2023-09-26T11:36:47.349Z,26.24
2023-09-26T11:39:22.103Z,26.35
2023-09-26T11:42:07.709Z,26.19
2023-09-26T11:44:53.001Z,26.55
2023-09-26T11:47:28.265Z,26.20
2023-09-26T11:50:01.443Z,26.17
2023-09-26T11:52:35.243Z,26.18
2023-09-26T11:55:10.402Z,26.14
2023-09-26T11:57:48.303Z,26.29
2023-09-26T12:00:25.670Z,26.13
2023-09-26T12:02:58.805Z,26.14
2023-09-26T12:05:31.890Z,26.04
2023-09-26T12:08:04.968Z,26.01
2023-09-26T12:10:43.523Z,26.13
2023-09-26T12:13:17.469Z,26.07
2023-09-26T12:15:50.233Z,26.09
2023-09-26T12:18:24.478Z,25.92
2023-09-26T12:20:57.327Z,25.59
2023-09-26T12:23:30.555Z,25.53
2023-09-26T12:26:03.863Z,25.41
2023-09-26T12:28:37.580Z,25.22
2023-09-26T12:31:10.093Z,25.22
2023-09-26T12:33:43.527Z,25.14
2023-09-26T12:36:19.520Z,25.08
2023-09-26T12:38:52.518Z,25.07
2023-09-26T12:41:28.003Z,24.85
2023-09-26T12:44:00.872Z,25.04
2023-09-26T12:46:33.887Z,24.92
2023-09-26T12:49:07.168Z,24.78
2023-09-26T12:51:40.146Z,24.63
2023-09-26T12:54:13.003Z,24.70
2023-09-26T12:56:45.470Z,24.61
2023-09-26T12:59:20.021Z,24.87
2023-09-26T13:01:53.547Z,24.70
2023-09-26T13:04:26.801Z,24.49
2023-09-26T13:06:59.395Z,24.17
2023-09-26T13:09:32.408Z,24.22
2023-09-26T13:12:05.597Z,24.34
2023-09-26T13:14:38.998Z,24.06
2023-09-26T13:17:14.397Z,24.02
2023-09-26T13:19:48.373Z,23.84
2023-09-26T13:22:21.650Z,23.42
2023-09-26T13:24:54.567Z,23.07
2023-09-26T13:27:27.202Z,23.01
2023-09-26T13:30:00.061Z,22.75
2023-09-26T13:32:32.870Z,22.54
2023-09-26T13:35:06.299Z,22.38
2023-09-26T13:37:40.017Z,21.88
2023-09-26T13:40:13.225Z,22.10
2023-09-26T13:42:46.432Z,21.83
2023-09-26T13:45:23.137Z,21.72
2023-09-26T13:47:56.836Z,21.08
2023-09-26T13:50:29.675Z,21.48
2023-09-26T13:53:02.792Z,20.96
2023-09-26T13:55:35.272Z,20.93
2023-09-26T13:58:08.506Z,20.70
2023-09-26T14:00:41.053Z,20.83
2023-09-26T14:03:13.591Z,20.33
2023-09-26T14:05:47.073Z,20.55
2023-09-26T14:08:21.183Z,20.36
2023-09-26T14:10:54.719Z,20.30
2023-09-26T14:13:31.212Z,20.07
2023-09-26T14:16:06.506Z,20.14
2023-09-26T14:18:45.092Z,19.86
2023-09-26T14:21:24.700Z,19.76
2023-09-26T14:24:09.211Z,19.83
2023-09-26T14:26:48.362Z,19.71
2023-09-26T14:29:34.188Z,19.54
2023-09-26T14:32:09.397Z,19.60
2023-09-26T14:34:47.031Z,19.53
2023-09-26T14:37:22.765Z,19.21
2023-09-26T14:40:00.942Z,18.76
2023-09-26T14:42:44.777Z,19.40
2023-09-26T14:45:21.601Z,19.28
2023-09-26T14:47:55.278Z,19.33
2023-09-26T14:50:27.994Z,19.31
2023-09-26T14:53:06.127Z,19.23
2023-09-26T14:55:40.739Z,19.05
2023-09-26T14:58:14.738Z,19.21
2023-09-26T15:00:58.488Z,19.20
2023-09-26T15:03:37.130Z,19.10
2023-09-26T15:06:13.164Z,19.05
2023-09-26T15:08:49.416Z,19.30
2023-09-26T15:11:22.586Z,19.04
2023-09-26T15:13:55.759Z,19.14
2023-09-26T15:16:28.754Z,19.27
2023-09-26T15:19:02.634Z,19.37
2023-09-26T15:21:35.465Z,19.27
2023-09-26T15:24:09.413Z,19.53
2023-09-26T15:26:42.941Z,19.56
2023-09-26T15:29:17.260Z,19.64
2023-09-26T15:31:51.390Z,20.04
2023-09-26T15:34:26.305Z,20.07
2023-09-26T15:37:00.583Z,20.33
2023-09-26T15:39:39.638Z,20.48
2023-09-26T15:42:12.384Z,20.60
2023-09-26T15:44:45.328Z,20.52
2023-09-26T15:47:19.711Z,20.76
2023-09-26T15:50:04.393Z,20.87
2023-09-26T15:52:47.718Z,20.82
2023-09-26T15:55:25.918Z,21.06
2023-09-26T15:58:02.309Z,21.06
2023-09-26T16:00:40.246Z,21.13
2023-09-26T16:03:13.225Z,21.34
2023-09-26T16:12:15.259Z,21.84
2023-09-26T16:14:49.051Z,22.06
2023-09-26T16:17:26.154Z,22.27
2023-09-26T16:19:59.241Z,22.18
2023-09-26T16:22:32.086Z,22.40
2023-09-26T16:25:08.308Z,22.56
2023-09-26T16:27:58.549Z,22.72
2023-09-26T16:30:38.621Z,22.78
2023-09-26T16:33:26.478Z,22.90
2023-09-26T16:36:10.126Z,23.02
2023-09-26T16:41:45.096Z,23.38
2023-09-26T16:44:39.942Z,23.48
2023-09-26T16:47:13.134Z,23.52
2023-09-26T16:49:45.898Z,23.76
2023-09-26T16:52:24.950Z,23.98
2023-09-26T16:54:58.152Z,24.10
2023-09-26T16:57:31.270Z,24.14
2023-09-26T17:00:06.078Z,24.37
2023-09-26T17:02:38.895Z,24.56
2023-09-26T17:05:13.984Z,24.73
2023-09-26T17:07:48.200Z,24.86
2023-09-26T17:10:22.629Z,24.95
2023-09-26T17:12:58.599Z,25.01
2023-09-26T17:15:32.864Z,25.17
2023-09-26T17:18:06.877Z,25.16
2023-09-26T17:20:39.810Z,25.36
2023-09-26T17:23:12.531Z,25.45
2023-09-26T17:25:48.385Z,25.50
2023-09-26T17:28:22.438Z,25.71
2023-09-26T17:30:59.803Z,25.82
2023-09-26T17:33:37.051Z,26.04
2023-09-26T17:36:10.299Z,26.15
2023-09-26T17:38:47.522Z,26.31
2023-09-26T17:41:29.459Z,26.54
2023-09-26T17:44:02.239Z,26.76
2023-09-26T17:46:46.668Z,26.95
2023-09-26T17:49:20.228Z,27.05
2023-09-26T17:51:59.576Z,27.23
2023-09-26T17:54:32.503Z,27.50
2023-09-26T17:57:07.853Z,27.55
2023-09-26T17:59:40.628Z,27.72
2023-09-26T18:02:13.365Z,27.90
2023-09-26T18:04:48.667Z,27.89
2023-09-26T18:07:22.758Z,28.10
2023-09-26T18:09:58.715Z,28.15
2023-09-26T18:12:31.631Z,28.25
2023-09-26T18:15:06.757Z,28.34
2023-09-26T18:17:40.081Z,28.44
2023-09-26T18:20:14.852Z,28.61
2023-09-26T18:22:48.083Z,28.75
2023-09-26T18:28:32.887Z,29.05
2023-09-26T18:31:06.726Z,29.26
2023-09-26T18:33:39.353Z,29.28
2023-09-26T18:36:12.140Z,29.32
2023-09-26T18:38:44.830Z,29.45
2023-09-26T18:41:19.446Z,29.55
2023-09-26T18:43:56.299Z,29.74
2023-09-26T18:46:29.285Z,29.77
2023-09-26T18:49:02.362Z,29.77
2023-09-26T18:51:45.782Z,30.01
2023-09-26T18:54:18.723Z,30.01
2023-09-26T18:56:57.208Z,30.14
2023-09-26T18:59:34.197Z,30.17
2023-09-26T19:02:11.362Z,30.28
2023-09-26T19:05:16.520Z,31.39
2023-09-26T19:08:01.983Z,32.73
2023-09-26T19:10:41.774Z,31.20
2023-09-26T19:13:18.257Z,30.89
2023-09-26T19:15:59.055Z,30.87
2023-09-26T19:19:02.035Z,30.96
2023-09-26T19:21:39.616Z,31.00
2023-09-26T19:24:13.206Z,30.95
2023-09-26T19:26:46.792Z,30.99
2023-09-26T19:29:21.545Z,30.98
2023-09-26T19:32:01.204Z,31.00
2023-09-26T19:34:37.744Z,31.14
2023-09-26T19:37:10.456Z,31.15
2023-09-26T19:39:43.021Z,31.31
2023-09-26T19:42:16.452Z,31.37
2023-09-26T19:44:52.512Z,31.43
2023-09-26T19:47:26.243Z,31.35
2023-09-26T19:49:59.779Z,31.40
2023-09-26T19:52:33.723Z,31.61
2023-09-26T19:55:08.636Z,31.69
2023-09-26T19:57:53.193Z,31.73
2023-09-26T20:00:27.969Z,31.86
2023-09-26T20:03:00.497Z,31.88
2023-09-26T20:05:34.189Z,32.00
2023-09-26T20:08:07.525Z,32.00
2023-09-26T20:10:40.441Z,32.06
2023-09-26T20:13:13.646Z,32.26
2023-09-26T20:15:53.081Z,32.42
2023-09-26T20:18:26.407Z,32.47
2023-09-26T20:20:59.292Z,32.69
2023-09-26T20:23:31.949Z,32.74
2023-09-26T20:26:05.561Z,33.03
2023-09-26T20:28:39.824Z,33.04
2023-09-26T20:31:18.203Z,33.10
2023-09-26T20:33:55.053Z,33.21
2023-09-26T20:36:29.773Z,34.65
2023-09-26T20:39:03.298Z,35.83
2023-09-26T20:41:41.483Z,36.80
2023-09-26T20:44:14.513Z,35.75
2023-09-26T20:46:48.043Z,35.93
2023-09-26T20:49:24.835Z,35.66
2023-09-26T20:52:00.724Z,35.41
2023-09-26T20:54:36.665Z,35.08
2023-09-26T20:57:11.619Z,35.40
2023-09-26T20:59:46.421Z,35.55
2023-09-26T21:02:19.500Z,35.05
2023-09-26T21:04:59.494Z,35.15
2023-09-26T21:07:33.930Z,35.00
2023-09-26T21:10:07.971Z,34.96
2023-09-26T21:12:41.478Z,35.05
2023-09-26T21:15:15.337Z,34.94
2023-09-26T21:17:48.628Z,34.81
2023-09-26T21:20:27.485Z,34.79
2023-09-26T21:23:03.811Z,34.85
2023-09-26T21:25:40.802Z,34.86
2023-09-26T21:28:14.723Z,35.07
2023-09-26T21:30:48.311Z,35.01
2023-09-26T21:33:21.569Z,34.98
2023-09-26T21:36:00.333Z,34.87
2023-09-26T21:38:33.258Z,34.96
2023-09-26T21:41:10.246Z,34.80
2023-09-26T21:43:43.869Z,34.96
2023-09-26T21:46:21.852Z,35.05
2023-09-26T21:48:55.643Z,35.11
2023-09-26T21:51:30.796Z,35.44
2023-09-26T21:54:04.549Z,35.48
2023-09-26T21:56:39.643Z,35.38
2023-09-26T21:59:15.935Z,35.04
2023-09-26T22:01:50.292Z,35.40
2023-09-26T22:04:24.305Z,35.44
2023-09-26T22:06:58.643Z,35.47
2023-09-26T22:09:32.020Z,35.54
2023-09-26T22:12:06.323Z,35.45
2023-09-26T22:14:51.190Z,35.35
2023-09-26T22:17:28.134Z,35.57
2023-09-26T22:20:06.751Z,35.36
2023-09-26T22:22:44.477Z,35.22
2023-09-26T22:25:31.186Z,35.23
2023-09-26T22:28:11.250Z,35.27
2023-09-26T22:30:51.103Z,35.36
2023-09-26T22:33:27.858Z,35.26
2023-09-26T22:36:02.289Z,35.33
2023-09-26T22:38:37.385Z,35.65
2023-09-26T22:41:12.380Z,35.56
2023-09-26T22:43:46.839Z,35.83
2023-09-26T22:46:22.469Z,35.51
2023-09-26T22:48:56.198Z,35.66
2023-09-26T22:51:31.399Z,36.01
2023-09-26T22:54:06.071Z,36.13
2023-09-26T22:56:51.751Z,35.99
2023-09-26T22:59:28.030Z,35.99
2023-09-26T23:02:09.775Z,36.16
2023-09-26T23:04:54.425Z,36.12
2023-09-26T23:07:27.273Z,36.48
2023-09-26T23:10:04.792Z,36.29
2023-09-26T23:12:40.753Z,36.32
2023-09-26T23:15:18.206Z,36.37
2023-09-26T23:17:52.429Z,35.97
2023-09-26T23:20:27.892Z,36.48
2023-09-26T23:23:01.181Z,36.34
2023-09-26T23:25:36.557Z,36.37
2023-09-26T23:28:11.224Z,36.43
2023-09-26T23:30:56.164Z,36.04
2023-09-26T23:33:36.060Z,36.22
2023-09-26T23:36:13.763Z,36.41
2023-09-26T23:38:48.159Z,36.11
2023-09-26T23:41:26.417Z,36.47
2023-09-26T23:44:00.948Z,36.41
2023-09-26T23:46:35.658Z,36.07
2023-09-26T23:49:09.647Z,36.20
